sensor_id;sensor_type;location;lat;lon;timestamp;temperature;humidity
38333;DHT22;25748;46.670;14.272;2022-09-12T00:01:56;10.40;74.30
38333;DHT22;25748;46.670;14.272;2022-09-12T00:04:22;10.30;74.30
38333;DHT22;25748;46.670;14.272;2022-09-12T00:06:47;10.30;74.60
38333;DHT22;25748;46.670;14.272;2022-09-12T00:09:14;10.30;75.00
38333;DHT22;25748;46.670;14.272;2022-09-12T00:11:42;10.30;75.10
38333;DHT22;25748;46.670;14.272;2022-09-12T00:14:10;10.30;75.20
38333;DHT22;25748;46.670;14.272;2022-09-12T00:16:37;10.20;75.00
38333;DHT22;25748;46.670;14.272;2022-09-12T00:19:03;10.20;74.80
38333;DHT22;25748;46.670;14.272;2022-09-12T00:21:32;10.20;74.80
38333;DHT22;25748;46.670;14.272;2022-09-12T00:23:58;10.20;74.80
38333;DHT22;25748;46.670;14.272;2022-09-12T00:26:24;10.10;74.90
38333;DHT22;25748;46.670;14.272;2022-09-12T00:28:50;10.10;75.20
38333;DHT22;25748;46.670;14.272;2022-09-12T00:31:19;10.10;75.50
38333;DHT22;25748;46.670;14.272;2022-09-12T00:33:45;10.00;75.70
38333;DHT22;25748;46.670;14.272;2022-09-12T00:36:17;10.00;76.30
38333;DHT22;25748;46.670;14.272;2022-09-12T00:38:43;10.00;76.80
38333;DHT22;25748;46.670;14.272;2022-09-12T00:43:49;10.00;76.70
38333;DHT22;25748;46.670;14.272;2022-09-12T00:46:33;9.90;76.30
38333;DHT22;25748;46.670;14.272;2022-09-12T00:51:30;9.90;76.20
38333;DHT22;25748;46.670;14.272;2022-09-12T00:53:59;9.90;76.30
38333;DHT22;25748;46.670;14.272;2022-09-12T00:56:27;9.80;76.70
38333;DHT22;25748;46.670;14.272;2022-09-12T00:58:59;9.80;77.10
38333;DHT22;25748;46.670;14.272;2022-09-12T01:01:26;9.80;76.90
38333;DHT22;25748;46.670;14.272;2022-09-12T01:03:52;9.80;77.00
38333;DHT22;25748;46.670;14.272;2022-09-12T01:06:25;9.80;77.40
38333;DHT22;25748;46.670;14.272;2022-09-12T01:08:53;9.80;77.70
38333;DHT22;25748;46.670;14.272;2022-09-12T01:11:20;9.80;77.90
38333;DHT22;25748;46.670;14.272;2022-09-12T01:13:47;9.80;77.90
38333;DHT22;25748;46.670;14.272;2022-09-12T01:16:13;9.80;78.00
38333;DHT22;25748;46.670;14.272;2022-09-12T01:29:18;9.70;77.60
38333;DHT22;25748;46.670;14.272;2022-09-12T01:34:51;9.60;78.00
38333;DHT22;25748;46.670;14.272;2022-09-12T01:37:28;9.60;78.10
38333;DHT22;25748;46.670;14.272;2022-09-12T01:40:53;9.50;77.60
38333;DHT22;25748;46.670;14.272;2022-09-12T01:43:06;9.50;77.50
38333;DHT22;25748;46.670;14.272;2022-09-12T01:46:02;9.50;77.70
38333;DHT22;25748;46.670;14.272;2022-09-12T01:51:40;9.40;77.90
38333;DHT22;25748;46.670;14.272;2022-09-12T01:54:12;9.40;78.10
38333;DHT22;25748;46.670;14.272;2022-09-12T01:56:42;9.40;78.00
38333;DHT22;25748;46.670;14.272;2022-09-12T01:59:34;9.40;78.60
38333;DHT22;25748;46.670;14.272;2022-09-12T02:02:10;9.40;78.70
38333;DHT22;25748;46.670;14.272;2022-09-12T02:04:50;9.40;78.90
38333;DHT22;25748;46.670;14.272;2022-09-12T02:07:46;9.40;79.10
38333;DHT22;25748;46.670;14.272;2022-09-12T02:10:19;9.40;79.40
38333;DHT22;25748;46.670;14.272;2022-09-12T02:12:56;9.40;79.40
38333;DHT22;25748;46.670;14.272;2022-09-12T02:15:37;9.40;79.40
38333;DHT22;25748;46.670;14.272;2022-09-12T02:18:04;9.40;79.40
38333;DHT22;25748;46.670;14.272;2022-09-12T02:20:34;9.30;79.40
38333;DHT22;25748;46.670;14.272;2022-09-12T02:23:04;9.30;79.50
38333;DHT22;25748;46.670;14.272;2022-09-12T02:25:30;9.30;78.90
38333;DHT22;25748;46.670;14.272;2022-09-12T02:28:02;9.20;78.90
38333;DHT22;25748;46.670;14.272;2022-09-12T02:30:35;9.20;79.00
38333;DHT22;25748;46.670;14.272;2022-09-12T02:33:32;9.10;78.80
38333;DHT22;25748;46.670;14.272;2022-09-12T02:36:45;9.10;78.50
38333;DHT22;25748;46.670;14.272;2022-09-12T02:38:59;9.10;78.50
38333;DHT22;25748;46.670;14.272;2022-09-12T02:41:25;9.10;78.50
38333;DHT22;25748;46.670;14.272;2022-09-12T02:43:52;9.00;78.20
38333;DHT22;25748;46.670;14.272;2022-09-12T02:46:22;8.90;78.00
38333;DHT22;25748;46.670;14.272;2022-09-12T02:48:50;8.90;78.10
38333;DHT22;25748;46.670;14.272;2022-09-12T02:51:16;8.80;78.60
38333;DHT22;25748;46.670;14.272;2022-09-12T02:53:42;8.80;78.90
38333;DHT22;25748;46.670;14.272;2022-09-12T02:56:15;8.80;78.70
38333;DHT22;25748;46.670;14.272;2022-09-12T02:58:42;8.70;78.60
38333;DHT22;25748;46.670;14.272;2022-09-12T03:01:22;8.70;78.60
38333;DHT22;25748;46.670;14.272;2022-09-12T03:11:48;8.50;78.50
38333;DHT22;25748;46.670;14.272;2022-09-12T03:17:12;8.50;79.20
38333;DHT22;25748;46.670;14.272;2022-09-12T03:20:10;8.50;79.30
38333;DHT22;25748;46.670;14.272;2022-09-12T03:22:56;8.50;79.40
38333;DHT22;25748;46.670;14.272;2022-09-12T03:25:35;8.50;79.50
38333;DHT22;25748;46.670;14.272;2022-09-12T03:28:12;8.40;79.50
38333;DHT22;25748;46.670;14.272;2022-09-12T03:30:42;8.40;79.80
38333;DHT22;25748;46.670;14.272;2022-09-12T03:33:17;8.40;80.30
38333;DHT22;25748;46.670;14.272;2022-09-12T03:35:44;8.40;80.30
38333;DHT22;25748;46.670;14.272;2022-09-12T03:38:10;8.40;80.50
38333;DHT22;25748;46.670;14.272;2022-09-12T03:40:37;8.40;81.00
38333;DHT22;25748;46.670;14.272;2022-09-12T03:43:03;8.40;80.80
38333;DHT22;25748;46.670;14.272;2022-09-12T03:45:29;8.40;80.90
38333;DHT22;25748;46.670;14.272;2022-09-12T03:47:55;8.30;80.70
38333;DHT22;25748;46.670;14.272;2022-09-12T03:50:21;8.30;80.80
38333;DHT22;25748;46.670;14.272;2022-09-12T03:52:47;8.30;80.60
38333;DHT22;25748;46.670;14.272;2022-09-12T03:55:13;8.30;80.50
38333;DHT22;25748;46.670;14.272;2022-09-12T03:57:38;8.30;80.50
38333;DHT22;25748;46.670;14.272;2022-09-12T04:00:06;8.30;80.60
38333;DHT22;25748;46.670;14.272;2022-09-12T04:02:35;8.20;80.30
38333;DHT22;25748;46.670;14.272;2022-09-12T04:05:01;8.20;80.30
38333;DHT22;25748;46.670;14.272;2022-09-12T04:07:27;8.20;80.00
38333;DHT22;25748;46.670;14.272;2022-09-12T04:09:52;8.20;79.70
38333;DHT22;25748;46.670;14.272;2022-09-12T04:12:19;8.10;79.70
38333;DHT22;25748;46.670;14.272;2022-09-12T04:14:45;8.10;79.90
38333;DHT22;25748;46.670;14.272;2022-09-12T04:17:11;8.00;80.10
38333;DHT22;25748;46.670;14.272;2022-09-12T04:19:37;8.00;80.80
38333;DHT22;25748;46.670;14.272;2022-09-12T04:22:03;8.00;80.90
38333;DHT22;25748;46.670;14.272;2022-09-12T04:24:28;8.00;80.90
38333;DHT22;25748;46.670;14.272;2022-09-12T04:26:54;8.00;81.00
38333;DHT22;25748;46.670;14.272;2022-09-12T04:29:20;7.90;81.00
38333;DHT22;25748;46.670;14.272;2022-09-12T04:31:45;7.90;81.00
38333;DHT22;25748;46.670;14.272;2022-09-12T04:34:11;7.90;81.00
38333;DHT22;25748;46.670;14.272;2022-09-12T04:36:37;7.90;80.80
38333;DHT22;25748;46.670;14.272;2022-09-12T04:39:05;7.90;80.80
38333;DHT22;25748;46.670;14.272;2022-09-12T04:41:34;7.90;81.40
38333;DHT22;25748;46.670;14.272;2022-09-12T04:44:04;7.90;80.90
38333;DHT22;25748;46.670;14.272;2022-09-12T04:46:33;7.90;81.10
38333;DHT22;25748;46.670;14.272;2022-09-12T04:48:59;7.80;81.50
38333;DHT22;25748;46.670;14.272;2022-09-12T04:51:27;7.80;81.80
38333;DHT22;25748;46.670;14.272;2022-09-12T04:53:55;7.80;81.80
38333;DHT22;25748;46.670;14.272;2022-09-12T04:56:22;7.80;81.70
38333;DHT22;25748;46.670;14.272;2022-09-12T04:58:48;7.80;81.80
38333;DHT22;25748;46.670;14.272;2022-09-12T05:01:19;7.80;82.00
38333;DHT22;25748;46.670;14.272;2022-09-12T05:03:46;7.80;82.10
38333;DHT22;25748;46.670;14.272;2022-09-12T05:06:21;7.80;82.20
38333;DHT22;25748;46.670;14.272;2022-09-12T05:08:47;7.80;82.30
38333;DHT22;25748;46.670;14.272;2022-09-12T05:11:15;7.80;82.30
38333;DHT22;25748;46.670;14.272;2022-09-12T05:13:41;7.80;82.50
38333;DHT22;25748;46.670;14.272;2022-09-12T05:16:10;7.80;82.80
38333;DHT22;25748;46.670;14.272;2022-09-12T05:18:36;7.80;83.00
38333;DHT22;25748;46.670;14.272;2022-09-12T05:21:05;7.90;83.40
38333;DHT22;25748;46.670;14.272;2022-09-12T05:23:31;7.90;83.60
38333;DHT22;25748;46.670;14.272;2022-09-12T05:25:59;7.90;83.80
38333;DHT22;25748;46.670;14.272;2022-09-12T05:28:30;7.90;83.90
38333;DHT22;25748;46.670;14.272;2022-09-12T05:31:01;8.00;84.20
38333;DHT22;25748;46.670;14.272;2022-09-12T05:33:28;8.00;84.50
38333;DHT22;25748;46.670;14.272;2022-09-12T05:35:53;8.10;84.80
38333;DHT22;25748;46.670;14.272;2022-09-12T05:38:19;8.10;85.00
38333;DHT22;25748;46.670;14.272;2022-09-12T05:40:45;8.20;85.60
38333;DHT22;25748;46.670;14.272;2022-09-12T05:43:10;8.20;86.00
38333;DHT22;25748;46.670;14.272;2022-09-12T05:45:39;8.30;86.80
38333;DHT22;25748;46.670;14.272;2022-09-12T05:48:07;8.40;87.00
38333;DHT22;25748;46.670;14.272;2022-09-12T05:50:32;8.60;87.20
38333;DHT22;25748;46.670;14.272;2022-09-12T05:52:58;8.80;87.70
38333;DHT22;25748;46.670;14.272;2022-09-12T05:55:24;9.30;88.50
38333;DHT22;25748;46.670;14.272;2022-09-12T05:57:50;10.00;87.50
38333;DHT22;25748;46.670;14.272;2022-09-12T06:00:16;10.80;85.60
38333;DHT22;25748;46.670;14.272;2022-09-12T06:02:43;11.50;81.10
38333;DHT22;25748;46.670;14.272;2022-09-12T06:05:09;12.20;77.10
38333;DHT22;25748;46.670;14.272;2022-09-12T06:07:35;12.80;72.90
38333;DHT22;25748;46.670;14.272;2022-09-12T06:10:01;13.30;70.30
38333;DHT22;25748;46.670;14.272;2022-09-12T06:12:28;13.80;68.40
38333;DHT22;25748;46.670;14.272;2022-09-12T06:14:54;14.10;65.30
38333;DHT22;25748;46.670;14.272;2022-09-12T06:17:20;14.30;63.40
38333;DHT22;25748;46.670;14.272;2022-09-12T06:19:46;14.50;63.40
38333;DHT22;25748;46.670;14.272;2022-09-12T06:22:14;14.70;62.00
38333;DHT22;25748;46.670;14.272;2022-09-12T06:24:40;14.80;61.20
38333;DHT22;25748;46.670;14.272;2022-09-12T06:27:06;15.00;61.60
38333;DHT22;25748;46.670;14.272;2022-09-12T06:29:31;15.10;61.20
38333;DHT22;25748;46.670;14.272;2022-09-12T06:31:57;15.20;61.70
38333;DHT22;25748;46.670;14.272;2022-09-12T06:34:23;15.30;59.50
38333;DHT22;25748;46.670;14.272;2022-09-12T06:36:51;15.50;59.30
38333;DHT22;25748;46.670;14.272;2022-09-12T06:39:19;15.60;59.00
38333;DHT22;25748;46.670;14.272;2022-09-12T06:41:47;15.80;58.90
38333;DHT22;25748;46.670;14.272;2022-09-12T06:44:15;16.00;58.10
38333;DHT22;25748;46.670;14.272;2022-09-12T06:46:41;16.10;57.60
38333;DHT22;25748;46.670;14.272;2022-09-12T06:49:07;16.40;57.30
38333;DHT22;25748;46.670;14.272;2022-09-12T06:51:33;16.60;57.30
38333;DHT22;25748;46.670;14.272;2022-09-12T06:54:00;16.80;56.50
38333;DHT22;25748;46.670;14.272;2022-09-12T06:56:27;17.00;55.20
38333;DHT22;25748;46.670;14.272;2022-09-12T06:58:55;17.20;53.70
38333;DHT22;25748;46.670;14.272;2022-09-12T07:01:28;17.40;53.50
38333;DHT22;25748;46.670;14.272;2022-09-12T07:03:57;17.50;52.20
38333;DHT22;25748;46.670;14.272;2022-09-12T07:06:25;17.70;52.00
38333;DHT22;25748;46.670;14.272;2022-09-12T07:08:57;17.90;52.20
38333;DHT22;25748;46.670;14.272;2022-09-12T07:11:25;18.00;51.40
38333;DHT22;25748;46.670;14.272;2022-09-12T07:13:54;18.20;51.50
38333;DHT22;25748;46.670;14.272;2022-09-12T07:16:21;18.40;50.80
38333;DHT22;25748;46.670;14.272;2022-09-12T07:18:54;18.40;50.40
38333;DHT22;25748;46.670;14.272;2022-09-12T07:21:20;18.60;50.10
38333;DHT22;25748;46.670;14.272;2022-09-12T07:23:46;18.60;50.00
38333;DHT22;25748;46.670;14.272;2022-09-12T07:26:13;18.70;49.90
38333;DHT22;25748;46.670;14.272;2022-09-12T07:28:40;18.90;50.00
38333;DHT22;25748;46.670;14.272;2022-09-12T07:31:11;19.00;49.70
38333;DHT22;25748;46.670;14.272;2022-09-12T07:33:37;19.00;49.20
38333;DHT22;25748;46.670;14.272;2022-09-12T07:36:05;19.10;50.20
38333;DHT22;25748;46.670;14.272;2022-09-12T07:38:31;19.30;49.70
38333;DHT22;25748;46.670;14.272;2022-09-12T07:40:57;19.40;48.60
38333;DHT22;25748;46.670;14.272;2022-09-12T07:43:23;19.40;47.80
38333;DHT22;25748;46.670;14.272;2022-09-12T07:45:55;19.50;47.70
38333;DHT22;25748;46.670;14.272;2022-09-12T07:48:20;19.60;48.00
38333;DHT22;25748;46.670;14.272;2022-09-12T07:50:46;19.70;46.80
38333;DHT22;25748;46.670;14.272;2022-09-12T07:53:12;19.60;47.40
38333;DHT22;25748;46.670;14.272;2022-09-12T07:55:38;19.60;47.40
38333;DHT22;25748;46.670;14.272;2022-09-12T07:58:05;19.70;47.80
38333;DHT22;25748;46.670;14.272;2022-09-12T08:00:30;19.80;47.40
38333;DHT22;25748;46.670;14.272;2022-09-12T08:03:00;20.00;47.90
38333;DHT22;25748;46.670;14.272;2022-09-12T08:05:27;20.10;47.50
38333;DHT22;25748;46.670;14.272;2022-09-12T08:07:52;20.20;46.70
38333;DHT22;25748;46.670;14.272;2022-09-12T08:10:18;20.30;46.70
38333;DHT22;25748;46.670;14.272;2022-09-12T08:12:44;20.50;47.60
38333;DHT22;25748;46.670;14.272;2022-09-12T08:15:10;20.60;47.00
38333;DHT22;25748;46.670;14.272;2022-09-12T08:17:35;20.50;45.70
38333;DHT22;25748;46.670;14.272;2022-09-12T08:20:02;20.60;46.00
38333;DHT22;25748;46.670;14.272;2022-09-12T08:22:30;20.60;47.30
38333;DHT22;25748;46.670;14.272;2022-09-12T08:24:56;20.80;45.90
38333;DHT22;25748;46.670;14.272;2022-09-12T08:27:21;20.70;45.60
38333;DHT22;25748;46.670;14.272;2022-09-12T08:29:47;20.60;44.80
38333;DHT22;25748;46.670;14.272;2022-09-12T08:32:13;20.60;45.10
38333;DHT22;25748;46.670;14.272;2022-09-12T08:34:38;20.60;44.90
38333;DHT22;25748;46.670;14.272;2022-09-12T08:37:04;20.40;45.40
38333;DHT22;25748;46.670;14.272;2022-09-12T08:39:30;20.40;45.30
38333;DHT22;25748;46.670;14.272;2022-09-12T08:42:01;20.50;44.80
38333;DHT22;25748;46.670;14.272;2022-09-12T08:47:39;20.90;45.40
38333;DHT22;25748;46.670;14.272;2022-09-12T08:55:36;21.10;44.20
38333;DHT22;25748;46.670;14.272;2022-09-12T08:58:32;21.30;44.30
38333;DHT22;25748;46.670;14.272;2022-09-12T09:09:53;22.50;43.20
38333;DHT22;25748;46.670;14.272;2022-09-12T09:15:44;23.20;42.10
38333;DHT22;25748;46.670;14.272;2022-09-12T09:18:27;23.40;41.30
38333;DHT22;25748;46.670;14.272;2022-09-12T09:21:02;23.70;41.10
38333;DHT22;25748;46.670;14.272;2022-09-12T09:23:34;23.80;40.20
38333;DHT22;25748;46.670;14.272;2022-09-12T09:28:45;24.00;39.00
38333;DHT22;25748;46.670;14.272;2022-09-12T09:31:14;24.20;40.40
38333;DHT22;25748;46.670;14.272;2022-09-12T09:33:41;24.50;40.20
38333;DHT22;25748;46.670;14.272;2022-09-12T09:44:58;24.90;38.90
38333;DHT22;25748;46.670;14.272;2022-09-12T09:47:25;25.20;38.80
38333;DHT22;25748;46.670;14.272;2022-09-12T09:49:50;25.20;38.30
38333;DHT22;25748;46.670;14.272;2022-09-12T09:52:23;25.20;38.10
38333;DHT22;25748;46.670;14.272;2022-09-12T09:54:56;25.50;37.50
38333;DHT22;25748;46.670;14.272;2022-09-12T10:05:50;26.30;37.50
38333;DHT22;25748;46.670;14.272;2022-09-12T10:11:05;26.50;37.40
38333;DHT22;25748;46.670;14.272;2022-09-12T10:16:30;26.80;37.00
38333;DHT22;25748;46.670;14.272;2022-09-12T10:18:58;27.00;37.00
38333;DHT22;25748;46.670;14.272;2022-09-12T10:21:40;26.70;36.40
38333;DHT22;25748;46.670;14.272;2022-09-12T10:29:32;27.40;35.90
38333;DHT22;25748;46.670;14.272;2022-09-12T10:32:02;27.50;35.60
38333;DHT22;25748;46.670;14.272;2022-09-12T10:34:42;27.90;36.10
38333;DHT22;25748;46.670;14.272;2022-09-12T10:37:32;28.20;36.90
38333;DHT22;25748;46.670;14.272;2022-09-12T10:40:00;28.30;35.70
38333;DHT22;25748;46.670;14.272;2022-09-12T10:42:52;28.50;35.60
38333;DHT22;25748;46.670;14.272;2022-09-12T10:45:31;28.30;35.30
38333;DHT22;25748;46.670;14.272;2022-09-12T10:47:59;27.80;35.80
38333;DHT22;25748;46.670;14.272;2022-09-12T10:50:27;27.80;35.70
38333;DHT22;25748;46.670;14.272;2022-09-12T10:52:54;27.90;35.90
38333;DHT22;25748;46.670;14.272;2022-09-12T10:55:31;28.00;35.70
38333;DHT22;25748;46.670;14.272;2022-09-12T10:58:22;28.00;35.10
38333;DHT22;25748;46.670;14.272;2022-09-12T11:01:01;28.40;35.40
38333;DHT22;25748;46.670;14.272;2022-09-12T11:06:37;29.30;35.40
38333;DHT22;25748;46.670;14.272;2022-09-12T11:25:33;30.20;34.40
38333;DHT22;25748;46.670;14.272;2022-09-12T11:28:31;30.30;33.80
38333;DHT22;25748;46.670;14.272;2022-09-12T11:33:51;29.80;33.60
38333;DHT22;25748;46.670;14.272;2022-09-12T11:36:42;29.70;34.90
38333;DHT22;25748;46.670;14.272;2022-09-12T11:39:22;29.70;34.90
38333;DHT22;25748;46.670;14.272;2022-09-12T11:41:57;29.70;34.60
38333;DHT22;25748;46.670;14.272;2022-09-12T11:44:31;29.70;34.20
38333;DHT22;25748;46.670;14.272;2022-09-12T11:47:00;29.60;34.70
38333;DHT22;25748;46.670;14.272;2022-09-12T11:49:49;29.70;34.50
38333;DHT22;25748;46.670;14.272;2022-09-12T11:52:19;29.20;34.40
38333;DHT22;25748;46.670;14.272;2022-09-12T11:55:09;29.10;34.00
38333;DHT22;25748;46.670;14.272;2022-09-12T11:57:56;29.30;34.00
38333;DHT22;25748;46.670;14.272;2022-09-12T12:00:37;29.40;33.90
38333;DHT22;25748;46.670;14.272;2022-09-12T12:06:01;29.10;33.70
38333;DHT22;25748;46.670;14.272;2022-09-12T12:08:38;29.10;32.50
38333;DHT22;25748;46.670;14.272;2022-09-12T12:11:05;29.20;32.30
38333;DHT22;25748;46.670;14.272;2022-09-12T12:16:22;29.00;31.60
38333;DHT22;25748;46.670;14.272;2022-09-12T12:18:57;29.10;32.80
38333;DHT22;25748;46.670;14.272;2022-09-12T12:29:10;29.30;33.50
38333;DHT22;25748;46.670;14.272;2022-09-12T12:34:38;28.80;31.80
38333;DHT22;25748;46.670;14.272;2022-09-12T12:47:45;28.70;31.30
38333;DHT22;25748;46.670;14.272;2022-09-12T12:50:23;28.60;31.00
38333;DHT22;25748;46.670;14.272;2022-09-12T12:55:36;28.60;31.10
38333;DHT22;25748;46.670;14.272;2022-09-12T12:58:04;28.70;31.20
38333;DHT22;25748;46.670;14.272;2022-09-12T13:00:36;28.70;32.10
38333;DHT22;25748;46.670;14.272;2022-09-12T13:05:38;29.00;32.30
38333;DHT22;25748;46.670;14.272;2022-09-12T13:10:49;29.10;32.40
38333;DHT22;25748;46.670;14.272;2022-09-12T13:15:51;29.20;31.20
38333;DHT22;25748;46.670;14.272;2022-09-12T13:18:26;29.20;31.60
38333;DHT22;25748;46.670;14.272;2022-09-12T13:21:09;28.90;31.20
38333;DHT22;25748;46.670;14.272;2022-09-12T13:23:36;28.90;31.90
38333;DHT22;25748;46.670;14.272;2022-09-12T13:26:07;28.60;31.40
38333;DHT22;25748;46.670;14.272;2022-09-12T13:28:34;28.60;31.90
38333;DHT22;25748;46.670;14.272;2022-09-12T13:31:20;28.70;31.90
38333;DHT22;25748;46.670;14.272;2022-09-12T13:33:53;28.60;31.70
38333;DHT22;25748;46.670;14.272;2022-09-12T13:44:28;28.40;32.50
38333;DHT22;25748;46.670;14.272;2022-09-12T13:46:57;28.40;32.10
38333;DHT22;25748;46.670;14.272;2022-09-12T13:49:36;28.20;32.30
38333;DHT22;25748;46.670;14.272;2022-09-12T13:52:30;28.00;32.80
38333;DHT22;25748;46.670;14.272;2022-09-12T13:54:57;27.80;32.70
38333;DHT22;25748;46.670;14.272;2022-09-12T13:57:35;28.00;32.70
38333;DHT22;25748;46.670;14.272;2022-09-12T14:00:16;27.80;32.50
38333;DHT22;25748;46.670;14.272;2022-09-12T14:02:45;27.70;32.60
38333;DHT22;25748;46.670;14.272;2022-09-12T14:05:25;27.60;33.10
38333;DHT22;25748;46.670;14.272;2022-09-12T14:07:52;27.50;33.60
38333;DHT22;25748;46.670;14.272;2022-09-12T14:10:27;27.30;33.70
38333;DHT22;25748;46.670;14.272;2022-09-12T14:12:54;27.20;33.00
38333;DHT22;25748;46.670;14.272;2022-09-12T14:15:24;27.10;33.30
38333;DHT22;25748;46.670;14.272;2022-09-12T14:17:53;26.90;32.40
38333;DHT22;25748;46.670;14.272;2022-09-12T14:20:21;26.90;33.00
38333;DHT22;25748;46.670;14.272;2022-09-12T14:22:51;26.80;33.60
38333;DHT22;25748;46.670;14.272;2022-09-12T14:25:22;26.80;33.20
38333;DHT22;25748;46.670;14.272;2022-09-12T14:27:54;26.60;32.20
38333;DHT22;25748;46.670;14.272;2022-09-12T14:30:26;26.60;33.40
38333;DHT22;25748;46.670;14.272;2022-09-12T14:35:43;26.40;33.60
38333;DHT22;25748;46.670;14.272;2022-09-12T14:38:22;26.20;32.90
38333;DHT22;25748;46.670;14.272;2022-09-12T14:41:00;26.20;33.30
38333;DHT22;25748;46.670;14.272;2022-09-12T14:43:29;26.30;33.20
38333;DHT22;25748;46.670;14.272;2022-09-12T14:45:58;26.30;33.40
38333;DHT22;25748;46.670;14.272;2022-09-12T14:48:28;26.30;33.40
38333;DHT22;25748;46.670;14.272;2022-09-12T14:50:54;26.20;32.90
38333;DHT22;25748;46.670;14.272;2022-09-12T14:53:25;26.20;32.70
38333;DHT22;25748;46.670;14.272;2022-09-12T14:56:08;26.20;33.20
38333;DHT22;25748;46.670;14.272;2022-09-12T14:58:34;26.10;33.10
38333;DHT22;25748;46.670;14.272;2022-09-12T15:06:31;26.30;33.20
38333;DHT22;25748;46.670;14.272;2022-09-12T15:09:01;26.20;32.90
38333;DHT22;25748;46.670;14.272;2022-09-12T15:11:27;26.20;33.50
38333;DHT22;25748;46.670;14.272;2022-09-12T15:13:53;26.00;33.90
38333;DHT22;25748;46.670;14.272;2022-09-12T15:16:18;26.00;33.50
38333;DHT22;25748;46.670;14.272;2022-09-12T15:18:44;25.90;33.40
38333;DHT22;25748;46.670;14.272;2022-09-12T15:21:17;25.80;33.10
38333;DHT22;25748;46.670;14.272;2022-09-12T15:23:49;25.80;33.60
38333;DHT22;25748;46.670;14.272;2022-09-12T15:26:17;25.60;33.20
38333;DHT22;25748;46.670;14.272;2022-09-12T15:28:43;25.60;33.70
38333;DHT22;25748;46.670;14.272;2022-09-12T15:31:21;25.60;33.80
38333;DHT22;25748;46.670;14.272;2022-09-12T15:33:47;25.50;33.70
38333;DHT22;25748;46.670;14.272;2022-09-12T15:36:17;25.40;33.60
38333;DHT22;25748;46.670;14.272;2022-09-12T15:38:44;25.40;33.90
38333;DHT22;25748;46.670;14.272;2022-09-12T15:41:20;25.40;34.20
38333;DHT22;25748;46.670;14.272;2022-09-12T15:43:47;25.30;34.10
38333;DHT22;25748;46.670;14.272;2022-09-12T15:46:14;25.20;34.30
38333;DHT22;25748;46.670;14.272;2022-09-12T15:48:41;25.10;34.60
38333;DHT22;25748;46.670;14.272;2022-09-12T15:51:18;25.10;34.50
38333;DHT22;25748;46.670;14.272;2022-09-12T15:53:45;25.00;35.20
38333;DHT22;25748;46.670;14.272;2022-09-12T15:56:13;24.90;35.70
38333;DHT22;25748;46.670;14.272;2022-09-12T15:58:38;24.80;36.70
38333;DHT22;25748;46.670;14.272;2022-09-12T16:01:04;24.70;38.10
38333;DHT22;25748;46.670;14.272;2022-09-12T16:03:30;24.50;39.10
38333;DHT22;25748;46.670;14.272;2022-09-12T16:06:01;24.30;39.80
38333;DHT22;25748;46.670;14.272;2022-09-12T16:08:29;24.20;40.60
38333;DHT22;25748;46.670;14.272;2022-09-12T16:11:03;24.10;41.10
38333;DHT22;25748;46.670;14.272;2022-09-12T16:13:29;23.90;41.90
38333;DHT22;25748;46.670;14.272;2022-09-12T16:15:56;23.60;42.10
38333;DHT22;25748;46.670;14.272;2022-09-12T16:18:22;23.40;42.20
38333;DHT22;25748;46.670;14.272;2022-09-12T16:20:51;23.30;42.30
38333;DHT22;25748;46.670;14.272;2022-09-12T16:23:17;23.10;42.20
38333;DHT22;25748;46.670;14.272;2022-09-12T16:25:43;23.00;42.40
38333;DHT22;25748;46.670;14.272;2022-09-12T16:28:08;22.80;42.70
38333;DHT22;25748;46.670;14.272;2022-09-12T16:30:34;22.70;42.70
38333;DHT22;25748;46.670;14.272;2022-09-12T16:33:00;22.50;42.80
38333;DHT22;25748;46.670;14.272;2022-09-12T16:35:26;22.40;43.10
38333;DHT22;25748;46.670;14.272;2022-09-12T16:37:51;22.30;43.10
38333;DHT22;25748;46.670;14.272;2022-09-12T16:40:17;22.10;43.20
38333;DHT22;25748;46.670;14.272;2022-09-12T16:42:44;21.90;43.20
38333;DHT22;25748;46.670;14.272;2022-09-12T16:45:11;21.80;43.40
38333;DHT22;25748;46.670;14.272;2022-09-12T16:47:37;21.70;43.70
38333;DHT22;25748;46.670;14.272;2022-09-12T16:50:03;21.60;44.10
38333;DHT22;25748;46.670;14.272;2022-09-12T16:52:29;21.50;44.80
38333;DHT22;25748;46.670;14.272;2022-09-12T16:54:55;21.30;44.50
38333;DHT22;25748;46.670;14.272;2022-09-12T16:57:21;21.20;44.50
38333;DHT22;25748;46.670;14.272;2022-09-12T16:59:48;21.10;44.50
38333;DHT22;25748;46.670;14.272;2022-09-12T17:02:14;20.90;45.20
38333;DHT22;25748;46.670;14.272;2022-09-12T17:04:40;20.70;45.60
38333;DHT22;25748;46.670;14.272;2022-09-12T17:07:08;20.50;46.60
38333;DHT22;25748;46.670;14.272;2022-09-12T17:09:34;20.30;47.30
38333;DHT22;25748;46.670;14.272;2022-09-12T17:12:00;20.20;47.00
38333;DHT22;25748;46.670;14.272;2022-09-12T17:14:26;20.00;47.30
38333;DHT22;25748;46.670;14.272;2022-09-12T17:16:54;19.80;47.20
38333;DHT22;25748;46.670;14.272;2022-09-12T17:19:22;19.60;46.80
38333;DHT22;25748;46.670;14.272;2022-09-12T17:21:51;19.40;46.90
38333;DHT22;25748;46.670;14.272;2022-09-12T17:24:20;19.20;47.30
38333;DHT22;25748;46.670;14.272;2022-09-12T17:26:46;19.00;47.30
38333;DHT22;25748;46.670;14.272;2022-09-12T17:29:12;18.90;47.10
38333;DHT22;25748;46.670;14.272;2022-09-12T17:31:39;18.70;47.40
38333;DHT22;25748;46.670;14.272;2022-09-12T17:34:05;18.60;47.90
38333;DHT22;25748;46.670;14.272;2022-09-12T17:36:31;18.40;48.10
38333;DHT22;25748;46.670;14.272;2022-09-12T17:39:00;18.30;48.70
38333;DHT22;25748;46.670;14.272;2022-09-12T17:41:30;18.20;48.50
38333;DHT22;25748;46.670;14.272;2022-09-12T17:43:57;18.00;48.90
38333;DHT22;25748;46.670;14.272;2022-09-12T17:46:28;17.70;49.60
38333;DHT22;25748;46.670;14.272;2022-09-12T17:48:55;17.60;49.80
38333;DHT22;25748;46.670;14.272;2022-09-12T17:51:23;17.40;49.50
38333;DHT22;25748;46.670;14.272;2022-09-12T17:53:55;17.30;50.00
38333;DHT22;25748;46.670;14.272;2022-09-12T17:56:21;17.10;50.10
38333;DHT22;25748;46.670;14.272;2022-09-12T17:58:47;16.90;50.20
38333;DHT22;25748;46.670;14.272;2022-09-12T18:01:13;16.80;50.10
38333;DHT22;25748;46.670;14.272;2022-09-12T18:03:58;16.70;50.20
38333;DHT22;25748;46.670;14.272;2022-09-12T18:06:29;16.60;50.20
38333;DHT22;25748;46.670;14.272;2022-09-12T18:09:02;16.50;50.50
38333;DHT22;25748;46.670;14.272;2022-09-12T18:11:28;16.30;50.70
38333;DHT22;25748;46.670;14.272;2022-09-12T18:13:54;16.30;51.20
38333;DHT22;25748;46.670;14.272;2022-09-12T18:16:20;16.20;51.40
38333;DHT22;25748;46.670;14.272;2022-09-12T18:18:45;16.10;51.50